Time,TemperatureF,DewpointF,PressureIn,WindDirection,WindDirectionDegrees,WindSpeedMPH,WindSpeedGustMPH,Humidity,HourlyPrecipIn,Conditions,Clouds,dailyrainin,SoftwareType,DateUTC
2013-01-31 00:00:00,57.6,55.6,29.20,North,0,0.0,0.0,93,0.00,,,0.00,WUHU216HW,2013-01-31 05:00:00,
2013-01-31 00:01:00,57.6,55.6,29.20,North,0,0.0,0.0,93,0.00,,,0.00,WUHU216HW,2013-01-31 05:01:00,
2013-01-31 00:02:00,57.6,55.6,29.19,North,0,0.0,0.0,93,0.00,,,0.00,WUHU216HW,2013-01-31 05:02:00,
2013-01-31 00:03:00,57.4,55.5,29.18,North,0,0.0,0.0,93,0.00,,,0.00,WUHU216HW,2013-01-31 05:03:00,
2013-01-31 00:08:00,57.4,55.5,29.18,North,0,0.0,0.0,93,0.00,,,0.00,WUHU216HW,2013-01-31 05:08:00,
2013-01-31 00:13:00,57.2,55.3,29.17,North,0,0.0,0.0,93,0.00,,,0.00,WUHU216HW,2013-01-31 05:13:00,
2013-01-31 00:18:00,57.2,55.3,29.17,North,0,0.0,0.0,93,0.00,,,0.00,WUHU216HW,2013-01-31 05:18:00,
2013-01-31 00:23:00,57.2,55.3,29.17,North,0,0.0,0.0,93,0.00,,,0.00,WUHU216HW,2013-01-31 05:23:00,
2013-01-31 00:28:00,57.2,55.3,29.16,North,0,0.0,0.0,93,0.00,,,0.00,WUHU216HW,2013-01-31 05:28:00,
2013-01-31 00:33:00,57.2,55.3,29.15,North,0,0.0,0.0,93,0.00,,,0.00,WUHU216HW,2013-01-31 05:33:00,
2013-01-31 00:38:00,57.2,55.5,29.14,North,0,0.0,0.0,94,0.00,,,0.00,WUHU216HW,2013-01-31 05:38:00,
2013-01-31 00:43:00,57.4,55.7,29.13,North,0,0.0,0.0,94,0.00,,,0.00,WUHU216HW,2013-01-31 05:43:00,
2013-01-31 00:48:00,57.8,56.1,29.12,North,0,0.0,0.0,94,0.00,,,0.00,WUHU216HW,2013-01-31 05:48:00,
2013-01-31 00:53:00,57.8,56.1,29.11,North,0,0.0,0.0,94,0.00,,,0.00,WUHU216HW,2013-01-31 05:53:00,
2013-01-31 00:58:00,57.8,56.1,29.10,North,0,0.0,0.0,94,0.00,,,0.00,WUHU216HW,2013-01-31 05:58:00,
2013-01-31 01:03:00,58.0,56.5,29.09,North,0,0.0,0.0,95,0.00,,,0.00,WUHU216HW,2013-01-31 06:03:00,
2013-01-31 01:08:00,58.3,56.9,29.08,North,0,0.0,0.0,95,0.00,,,0.00,WUHU216HW,2013-01-31 06:08:00,
2013-01-31 01:13:00,58.5,57.1,29.06,North,0,0.0,0.0,95,0.00,,,0.00,WUHU216HW,2013-01-31 06:13:00,
2013-01-31 01:19:00,58.7,57.2,29.04,North,0,0.0,0.0,95,0.00,,,0.00,WUHU216HW,2013-01-31 06:19:00,
2013-01-31 01:24:00,59.0,57.6,29.03,North,0,0.0,0.0,95,0.00,,,0.00,WUHU216HW,2013-01-31 06:24:00,
2013-01-31 01:29:00,59.2,57.8,29.02,North,0,0.0,0.0,95,0.00,,,0.00,WUHU216HW,2013-01-31 06:29:00,
2013-01-31 01:34:00,59.4,58.0,29.00,North,0,0.0,0.0,95,0.00,,,0.00,WUHU216HW,2013-01-31 06:34:00,
2013-01-31 01:39:00,59.4,58.0,29.00,North,0,0.0,0.0,95,0.00,,,0.00,WUHU216HW,2013-01-31 06:39:00,
2013-01-31 01:44:00,59.6,58.1,28.99,North,0,0.0,0.0,95,0.00,,,0.00,WUHU216HW,2013-01-31 06:44:00,
2013-01-31 01:49:00,59.9,58.5,28.98,North,0,0.0,0.0,95,0.00,,,0.00,WUHU216HW,2013-01-31 06:49:00,
2013-01-31 01:54:00,59.9,58.5,28.98,North,0,0.0,0.0,95,0.00,,,0.00,WUHU216HW,2013-01-31 06:54:00,
2013-01-31 01:59:00,59.9,58.5,28.97,North,0,0.0,0.0,95,0.00,,,0.00,WUHU216HW,2013-01-31 06:59:00,
2013-01-31 02:04:00,59.9,58.5,28.97,North,0,0.0,0.0,95,0.00,,,0.00,WUHU216HW,2013-01-31 07:04:00,
2013-01-31 02:09:00,60.1,58.7,28.98,North,0,0.0,0.0,95,0.00,,,0.00,WUHU216HW,2013-01-31 07:09:00,
2013-01-31 02:14:00,60.1,58.7,28.97,North,0,0.0,0.0,95,0.00,,,0.00,WUHU216HW,2013-01-31 07:14:00,
2013-01-31 02:19:00,60.3,58.9,28.96,North,0,0.0,0.0,95,0.00,,,0.00,WUHU216HW,2013-01-31 07:19:00,
2013-01-31 02:24:00,60.3,58.9,28.95,North,0,0.0,0.0,95,0.00,,,0.00,WUHU216HW,2013-01-31 07:24:00,
2013-01-31 02:29:00,60.1,58.7,28.95,North,0,0.0,0.0,95,0.00,,,0.00,WUHU216HW,2013-01-31 07:29:00,
2013-01-31 02:34:00,60.3,58.9,28.95,North,0,0.0,0.0,95,0.00,,,0.00,WUHU216HW,2013-01-31 07:34:00,
2013-01-31 02:39:00,60.3,58.9,28.94,North,0,0.0,0.0,95,0.00,,,0.00,WUHU216HW,2013-01-31 07:39:00,
2013-01-31 02:44:00,60.1,58.7,28.94,North,0,0.0,0.0,95,0.00,,,0.00,WUHU216HW,2013-01-31 07:44:00,
2013-01-31 02:49:00,60.1,58.7,28.93,North,0,0.0,0.0,95,0.00,,,0.00,WUHU216HW,2013-01-31 07:49:00,
2013-01-31 02:54:00,60.1,58.7,28.93,North,0,0.0,0.0,95,0.00,,,0.00,WUHU216HW,2013-01-31 07:54:00,
2013-01-31 03:00:00,60.1,58.7,28.92,North,0,0.0,0.0,95,0.00,,,0.00,WUHU216HW,2013-01-31 08:00:00,
2013-01-31 03:05:00,60.1,58.7,28.92,North,0,0.0,0.0,95,0.00,,,0.00,WUHU216HW,2013-01-31 08:05:00,
2013-01-31 03:10:00,60.3,58.9,28.91,North,0,0.0,0.0,95,0.00,,,0.00,WUHU216HW,2013-01-31 08:10:00,
2013-01-31 03:15:00,60.1,58.7,28.91,North,0,0.0,0.0,95,0.00,,,0.00,WUHU216HW,2013-01-31 08:15:00,
2013-01-31 03:20:00,60.1,58.7,28.92,North,0,0.0,0.0,95,0.00,,,0.00,WUHU216HW,2013-01-31 08:20:00,
2013-01-31 03:25:00,60.5,59.0,28.92,North,0,0.0,0.0,95,0.00,,,0.00,WUHU216HW,2013-01-31 08:25:00,
2013-01-31 03:30:00,59.8,58.3,28.93,North,0,0.0,0.0,95,0.00,,,0.00,WUHU216HW,2013-01-31 08:30:00,
2013-01-31 03:35:00,58.7,57.0,29.00,North,0,0.0,0.0,94,0.00,,,0.00,WUHU216HW,2013-01-31 08:35:00,
2013-01-31 03:40:00,58.7,57.0,29.01,North,0,0.0,0.0,94,0.00,,,0.00,WUHU216HW,2013-01-31 08:40:00,
2013-01-31 03:45:00,58.5,56.8,29.00,North,0,0.0,0.0,94,0.00,,,0.00,WUHU216HW,2013-01-31 08:45:00,
2013-01-31 03:50:00,58.3,56.6,28.99,North,0,0.0,0.0,94,0.00,,,0.00,WUHU216HW,2013-01-31 08:50:00,
2013-01-31 03:55:00,58.3,56.6,29.00,North,0,0.0,0.0,94,0.00,,,0.00,WUHU216HW,2013-01-31 08:55:00,
2013-01-31 04:00:00,58.1,56.7,29.00,North,0,0.0,0.0,95,0.00,,,0.00,WUHU216HW,2013-01-31 09:00:00,
2013-01-31 04:05:00,58.0,56.5,29.00,North,0,0.0,0.0,95,0.00,,,0.00,WUHU216HW,2013-01-31 09:05:00,
2013-01-31 04:10:00,58.0,56.5,28.99,North,0,0.0,0.0,95,0.00,,,0.00,WUHU216HW,2013-01-31 09:10:00,
2013-01-31 04:15:00,57.8,56.3,28.98,North,0,0.0,0.0,95,0.00,,,0.00,WUHU216HW,2013-01-31 09:15:00,
2013-01-31 04:20:00,57.6,56.2,28.98,North,0,0.0,0.0,95,0.00,,,0.00,WUHU216HW,2013-01-31 09:20:00,
2013-01-31 04:25:00,57.2,55.8,28.96,North,0,0.0,0.0,95,0.00,,,0.00,WUHU216HW,2013-01-31 09:25:00,
2013-01-31 04:30:00,57.1,55.6,28.96,North,0,0.0,0.0,95,0.00,,,0.00,WUHU216HW,2013-01-31 09:30:00,
2013-01-31 04:35:00,56.9,55.4,28.97,North,0,0.0,0.0,95,0.00,,,0.00,WUHU216HW,2013-01-31 09:35:00,
2013-01-31 04:40:00,56.7,55.3,28.96,North,0,0.0,0.0,95,0.00,,,0.00,WUHU216HW,2013-01-31 09:40:00,
2013-01-31 04:45:00,56.5,55.1,28.96,North,0,0.0,0.0,95,0.00,,,0.00,WUHU216HW,2013-01-31 09:45:00,
2013-01-31 04:50:00,56.2,54.7,28.94,North,0,0.0,0.0,95,0.00,,,0.00,WUHU216HW,2013-01-31 09:50:00,
2013-01-31 04:55:00,56.2,54.7,28.94,North,0,0.0,0.0,95,0.00,,,0.00,WUHU216HW,2013-01-31 09:55:00,
2013-01-31 05:00:00,55.8,54.4,28.94,North,0,0.0,0.0,95,0.00,,,0.00,WUHU216HW,2013-01-31 10:00:00,
2013-01-31 05:05:00,55.6,54.2,28.94,North,0,0.0,0.0,95,0.00,,,0.00,WUHU216HW,2013-01-31 10:05:00,
2013-01-31 05:10:00,55.6,54.2,28.94,North,0,0.0,0.0,95,0.00,,,0.00,WUHU216HW,2013-01-31 10:10:00,
2013-01-31 05:15:00,55.3,53.8,28.92,North,0,0.0,0.0,95,0.00,,,0.00,WUHU216HW,2013-01-31 10:15:00,
2013-01-31 05:20:00,55.1,53.6,28.92,North,0,0.0,0.0,95,0.00,,,0.00,WUHU216HW,2013-01-31 10:20:00,
2013-01-31 05:25:00,55.1,53.6,28.92,North,0,0.0,0.0,95,0.00,,,0.00,WUHU216HW,2013-01-31 10:25:00,
2013-01-31 05:30:00,55.1,53.6,28.93,North,0,0.0,0.0,95,0.00,,,0.00,WUHU216HW,2013-01-31 10:30:00,
2013-01-31 05:35:00,55.3,53.8,28.91,North,0,0.0,0.0,95,0.00,,,0.00,WUHU216HW,2013-01-31 10:35:00,
2013-01-31 05:40:00,55.4,54.0,28.97,North,0,0.0,0.0,95,0.00,,,0.00,WUHU216HW,2013-01-31 10:40:00,
2013-01-31 05:46:00,55.1,53.6,28.96,North,0,0.0,0.0,95,0.00,,,0.00,WUHU216HW,2013-01-31 10:46:00,
2013-01-31 05:51:00,54.5,53.1,28.96,North,0,0.0,0.0,95,0.00,,,0.00,WUHU216HW,2013-01-31 10:51:00,
2013-01-31 05:56:00,54.4,52.9,28.99,North,0,0.0,0.0,95,0.00,,,0.00,WUHU216HW,2013-01-31 10:56:00,
2013-01-31 06:01:00,53.1,51.4,29.01,North,0,0.0,0.0,94,0.00,,,0.00,WUHU216HW,2013-01-31 11:01:00,
2013-01-31 06:06:00,51.1,48.8,29.02,North,0,0.0,0.0,92,0.00,,,0.00,WUHU216HW,2013-01-31 11:06:00,
2013-01-31 06:11:00,49.9,47.6,29.02,North,0,0.0,0.0,92,0.00,,,0.00,WUHU216HW,2013-01-31 11:11:00,
2013-01-31 06:16:00,49.0,46.7,29.05,North,0,0.0,0.0,92,0.00,,,0.00,WUHU216HW,2013-01-31 11:16:00,
2013-01-31 06:21:00,47.9,45.7,29.06,North,0,0.0,0.0,92,0.00,,,0.00,WUHU216HW,2013-01-31 11:21:00,
2013-01-31 06:26:00,47.2,45.3,29.07,North,0,0.0,0.0,93,0.00,,,0.00,WUHU216HW,2013-01-31 11:26:00,
2013-01-31 06:31:00,46.4,44.3,29.07,North,0,0.0,0.0,92,0.00,,,0.00,WUHU216HW,2013-01-31 11:31:00,
2013-01-31 06:36:00,45.7,43.6,29.07,North,0,0.0,0.0,92,0.00,,,0.00,WUHU216HW,2013-01-31 11:36:00,
2013-01-31 06:41:00,45.0,42.6,29.07,North,0,0.0,0.0,91,0.00,,,0.00,WUHU216HW,2013-01-31 11:41:00,
2013-01-31 06:46:00,44.6,41.3,29.07,North,0,0.0,0.0,88,0.00,,,0.00,WUHU216HW,2013-01-31 11:46:00,
2013-01-31 06:51:00,44.3,41.3,29.08,North,0,0.0,0.0,89,0.00,,,0.00,WUHU216HW,2013-01-31 11:51:00,
2013-01-31 06:56:00,44.3,41.3,29.08,North,0,0.0,0.0,89,0.00,,,0.00,WUHU216HW,2013-01-31 11:56:00,
2013-01-31 07:01:00,43.7,40.4,29.10,North,0,0.0,0.0,88,0.00,,,0.00,WUHU216HW,2013-01-31 12:01:00,
2013-01-31 07:06:00,43.6,40.2,29.10,North,0,0.0,0.0,88,0.00,,,0.00,WUHU216HW,2013-01-31 12:06:00,
2013-01-31 07:11:00,43.6,40.0,29.10,North,0,0.0,0.0,87,0.00,,,0.00,WUHU216HW,2013-01-31 12:11:00,
2013-01-31 07:16:00,43.4,40.1,29.10,North,0,0.0,0.0,88,0.00,,,0.00,WUHU216HW,2013-01-31 12:16:00,
2013-01-31 07:21:00,43.2,39.9,29.11,North,0,0.0,0.0,88,0.00,,,0.00,WUHU216HW,2013-01-31 12:21:00,
2013-01-31 07:26:00,43.6,40.0,29.12,North,0,0.0,0.0,87,0.00,,,0.00,WUHU216HW,2013-01-31 12:26:00,
2013-01-31 07:31:00,43.4,39.2,29.12,North,0,0.0,0.0,85,0.00,,,0.00,WUHU216HW,2013-01-31 12:31:00,
2013-01-31 07:36:00,43.2,39.2,29.12,North,0,0.0,0.0,86,0.00,,,0.00,WUHU216HW,2013-01-31 12:36:00,
2013-01-31 07:41:00,43.2,39.0,29.13,North,0,0.0,0.0,85,0.00,,,0.00,WUHU216HW,2013-01-31 12:41:00,
2013-01-31 07:46:00,43.2,39.0,29.14,North,0,0.0,0.0,85,0.00,,,0.00,WUHU216HW,2013-01-31 12:46:00,
2013-01-31 07:51:00,43.0,38.8,29.15,North,0,0.0,0.0,85,0.00,,,0.00,WUHU216HW,2013-01-31 12:51:00,
2013-01-31 07:56:00,43.2,39.0,29.16,North,0,0.0,0.0,85,0.00,,,0.00,WUHU216HW,2013-01-31 12:56:00,
2013-01-31 08:01:00,43.2,39.0,29.16,North,0,0.0,0.0,85,0.00,,,0.00,WUHU216HW,2013-01-31 13:01:00,
2013-01-31 08:06:00,43.0,38.8,29.17,North,0,0.0,0.0,85,0.00,,,0.00,WUHU216HW,2013-01-31 13:06:00,
2013-01-31 08:11:00,42.8,37.4,29.18,North,0,0.0,0.0,81,0.00,,,0.00,WUHU216HW,2013-01-31 13:11:00,
2013-01-31 08:16:00,42.7,36.5,29.18,North,0,0.0,0.0,79,0.00,,,0.00,WUHU216HW,2013-01-31 13:16:00,
2013-01-31 12:02:00,41.2,30.0,29.32,North,0,0.0,0.0,64,0.00,,,0.00,WUHU216HW,2013-01-31 17:02:00,
2013-01-31 12:07:00,41.0,30.2,29.32,North,0,0.0,0.0,65,0.00,,,0.00,WUHU216HW,2013-01-31 17:07:00,
2013-01-31 12:12:00,41.6,29.2,29.33,North,0,0.0,0.0,61,0.00,,,0.00,WUHU216HW,2013-01-31 17:12:00,
2013-01-31 12:17:00,41.8,28.4,29.33,North,0,0.0,0.0,59,0.00,,,0.00,WUHU216HW,2013-01-31 17:17:00,
2013-01-31 12:22:00,41.8,30.1,29.33,North,0,0.0,0.0,63,0.00,,,0.00,WUHU216HW,2013-01-31 17:22:00,
2013-01-31 12:27:00,41.8,28.9,29.33,North,0,0.0,0.0,60,0.00,,,0.00,WUHU216HW,2013-01-31 17:27:00,
2013-01-31 12:32:00,42.1,29.6,29.33,North,0,0.0,0.0,61,0.00,,,0.00,WUHU216HW,2013-01-31 17:32:00,
2013-01-31 12:37:00,42.3,29.8,29.33,North,0,0.0,0.0,61,0.00,,,0.00,WUHU216HW,2013-01-31 17:37:00,
2013-01-31 12:42:00,42.3,29.4,29.33,North,0,0.0,0.0,60,0.00,,,0.00,WUHU216HW,2013-01-31 17:42:00,
2013-01-31 12:47:00,42.3,28.1,29.34,North,0,0.0,0.0,57,0.00,,,0.00,WUHU216HW,2013-01-31 17:47:00,
2013-01-31 12:52:00,41.8,28.4,29.33,North,0,0.0,0.0,59,0.00,,,0.00,WUHU216HW,2013-01-31 17:52:00,
2013-01-31 12:57:00,41.4,28.2,29.34,North,0,0.0,0.0,59,0.00,,,0.00,WUHU216HW,2013-01-31 17:57:00,
2013-01-31 13:02:00,41.0,27.8,29.34,North,0,0.0,0.0,59,0.00,,,0.00,WUHU216HW,2013-01-31 18:02:00,
2013-01-31 13:07:00,40.7,28.3,29.34,North,0,0.0,0.0,61,0.00,,,0.00,WUHU216HW,2013-01-31 18:07:00,
2013-01-31 13:12:00,40.9,28.1,29.34,North,0,0.0,0.0,60,0.00,,,0.00,WUHU216HW,2013-01-31 18:12:00,
2013-01-31 13:17:00,41.4,29.7,29.34,North,0,0.0,0.0,63,0.00,,,0.00,WUHU216HW,2013-01-31 18:17:00,
2013-01-31 13:23:00,41.6,29.5,29.34,North,0,0.0,0.0,62,0.00,,,0.00,WUHU216HW,2013-01-31 18:23:00,
2013-01-31 13:28:00,41.8,29.3,29.35,North,0,0.0,0.0,61,0.00,,,0.00,WUHU216HW,2013-01-31 18:28:00,
2013-01-31 13:33:00,41.9,29.4,29.35,North,0,0.0,0.0,61,0.00,,,0.00,WUHU216HW,2013-01-31 18:33:00,
2013-01-31 13:38:00,41.8,29.7,29.36,North,0,0.0,0.0,62,0.00,,,0.00,WUHU216HW,2013-01-31 18:38:00,
2013-01-31 13:43:00,41.6,29.2,29.36,North,0,0.0,0.0,61,0.00,,,0.00,WUHU216HW,2013-01-31 18:43:00,
2013-01-31 13:48:00,41.4,28.2,29.37,North,0,0.0,0.0,59,0.00,,,0.00,WUHU216HW,2013-01-31 18:48:00,
2013-01-31 13:53:00,41.2,28.5,29.37,North,0,0.0,0.0,60,0.00,,,0.00,WUHU216HW,2013-01-31 18:53:00,
2013-01-31 13:58:00,41.4,29.3,29.37,North,0,0.0,0.0,62,0.00,,,0.00,WUHU216HW,2013-01-31 18:58:00,
2013-01-31 14:03:00,41.9,27.7,29.37,North,0,0.0,0.0,57,0.00,,,0.00,WUHU216HW,2013-01-31 19:03:00,
2013-01-31 14:08:00,41.9,27.7,29.38,North,0,0.0,0.0,57,0.00,,,0.00,WUHU216HW,2013-01-31 19:08:00,
2013-01-31 14:13:00,41.4,28.2,29.38,North,0,0.0,0.0,59,0.00,,,0.00,WUHU216HW,2013-01-31 19:13:00,
2013-01-31 14:18:00,41.0,26.9,29.38,North,0,0.0,0.0,57,0.00,,,0.00,WUHU216HW,2013-01-31 19:18:00,
2013-01-31 14:23:00,40.7,26.6,29.38,North,0,0.0,0.0,57,0.00,,,0.00,WUHU216HW,2013-01-31 19:23:00,
2013-01-31 14:28:00,40.5,26.8,29.38,North,0,0.0,0.0,58,0.00,,,0.00,WUHU216HW,2013-01-31 19:28:00,
2013-01-31 14:33:00,40.3,27.1,29.39,North,0,0.0,0.0,59,0.00,,,0.00,WUHU216HW,2013-01-31 19:33:00,
2013-01-31 14:38:00,40.5,26.8,29.39,North,0,0.0,0.0,58,0.00,,,0.00,WUHU216HW,2013-01-31 19:38:00,
2013-01-31 14:43:00,40.9,26.7,29.39,North,0,0.0,0.0,57,0.00,,,0.00,WUHU216HW,2013-01-31 19:43:00,
2013-01-31 14:48:00,41.4,27.7,29.39,North,0,0.0,0.0,58,0.00,,,0.00,WUHU216HW,2013-01-31 19:48:00,
2013-01-31 14:53:00,41.4,27.7,29.40,North,0,0.0,0.0,58,0.00,,,0.00,WUHU216HW,2013-01-31 19:53:00,
2013-01-31 14:58:00,41.2,26.7,29.40,North,0,0.0,0.0,56,0.00,,,0.00,WUHU216HW,2013-01-31 19:58:00,
2013-01-31 15:03:00,40.7,25.7,29.40,North,0,0.0,0.0,55,0.00,,,0.00,WUHU216HW,2013-01-31 20:03:00,
2013-01-31 15:08:00,40.5,25.9,29.40,North,0,0.0,0.0,56,0.00,,,0.00,WUHU216HW,2013-01-31 20:08:00,
2013-01-31 15:13:00,40.3,25.7,29.41,North,0,0.0,0.0,56,0.00,,,0.00,WUHU216HW,2013-01-31 20:13:00,
2013-01-31 15:18:00,40.0,25.4,29.41,North,0,0.0,0.0,56,0.00,,,0.00,WUHU216HW,2013-01-31 20:18:00,
2013-01-31 15:23:00,39.2,24.3,29.42,North,0,0.0,0.0,55,0.00,,,0.00,WUHU216HW,2013-01-31 20:23:00,
2013-01-31 15:28:00,39.2,25.2,29.42,North,0,0.0,0.0,57,0.00,,,0.00,WUHU216HW,2013-01-31 20:28:00,
2013-01-31 15:33:00,39.2,25.2,29.42,North,0,0.0,0.0,57,0.00,,,0.00,WUHU216HW,2013-01-31 20:33:00,
2013-01-31 15:38:00,39.2,24.8,29.43,North,0,0.0,0.0,56,0.00,,,0.00,WUHU216HW,2013-01-31 20:38:00,
2013-01-31 15:43:00,39.1,23.7,29.43,North,0,0.0,0.0,54,0.00,,,0.00,WUHU216HW,2013-01-31 20:43:00,
2013-01-31 15:48:00,38.9,23.6,29.44,North,0,0.0,0.0,54,0.00,,,0.00,WUHU216HW,2013-01-31 20:48:00,
2013-01-31 15:53:00,38.5,24.9,29.45,North,0,0.0,0.0,58,0.00,,,0.00,WUHU216HW,2013-01-31 20:53:00,
2013-01-31 15:58:00,38.3,25.7,29.45,North,0,0.0,0.0,60,0.00,,,0.00,WUHU216HW,2013-01-31 20:58:00,
2013-01-31 16:04:00,38.2,25.0,29.46,North,0,0.0,0.0,59,0.00,,,0.00,WUHU216HW,2013-01-31 21:04:00,
2013-01-31 16:09:00,37.8,26.3,29.46,North,0,0.0,0.0,63,0.00,,,0.00,WUHU216HW,2013-01-31 21:09:00,
2013-01-31 16:14:00,38.0,26.5,29.46,North,0,0.0,0.0,63,0.00,,,0.00,WUHU216HW,2013-01-31 21:14:00,
2013-01-31 16:19:00,38.2,24.7,29.47,North,0,0.0,0.0,58,0.00,,,0.00,WUHU216HW,2013-01-31 21:19:00,
2013-01-31 16:24:00,37.6,24.1,29.48,North,0,0.0,0.0,58,0.00,,,0.00,WUHU216HW,2013-01-31 21:24:00,
2013-01-31 16:29:00,37.1,24.1,29.49,North,0,0.0,0.0,59,0.00,,,0.00,WUHU216HW,2013-01-31 21:29:00,
2013-01-31 16:34:00,36.5,22.8,29.49,North,0,0.0,0.0,57,0.00,,,0.00,WUHU216HW,2013-01-31 21:34:00,
2013-01-31 16:39:00,36.0,22.7,29.49,North,0,0.0,0.0,58,0.00,,,0.00,WUHU216HW,2013-01-31 21:39:00,
2013-01-31 16:45:00,35.6,23.2,29.50,North,0,0.0,0.0,60,0.00,,,0.00,WUHU216HW,2013-01-31 21:45:00,
2013-01-31 16:50:00,35.5,22.6,29.50,North,0,0.0,0.0,59,0.00,,,0.00,WUHU216HW,2013-01-31 21:50:00,
2013-01-31 16:55:00,35.3,22.0,29.50,North,0,0.0,0.0,58,0.00,,,0.00,WUHU216HW,2013-01-31 21:55:00,
2013-01-31 17:00:00,34.9,21.6,29.51,North,0,0.0,0.0,58,0.00,,,0.00,WUHU216HW,2013-01-31 22:00:00,
2013-01-31 17:05:00,34.9,21.3,29.51,North,0,0.0,0.0,57,0.00,,,0.00,WUHU216HW,2013-01-31 22:05:00,
2013-01-31 17:10:00,34.7,21.9,29.51,North,0,0.0,0.0,59,0.00,,,0.00,WUHU216HW,2013-01-31 22:10:00,
2013-01-31 17:15:00,34.6,21.2,29.51,North,0,0.0,0.0,58,0.00,,,0.00,WUHU216HW,2013-01-31 22:15:00,
2013-01-31 17:20:00,34.4,21.1,29.52,North,0,0.0,0.0,58,0.00,,,0.00,WUHU216HW,2013-01-31 22:20:00,
2013-01-31 17:25:00,34.2,20.9,29.52,North,0,0.0,0.0,58,0.00,,,0.00,WUHU216HW,2013-01-31 22:25:00,
2013-01-31 17:30:00,34.2,21.3,29.53,North,0,0.0,0.0,59,0.00,,,0.00,WUHU216HW,2013-01-31 22:30:00,
2013-01-31 17:36:00,34.2,21.8,29.53,North,0,0.0,0.0,60,0.00,,,0.00,WUHU216HW,2013-01-31 22:36:00,
2013-01-31 17:41:00,34.0,21.6,29.54,North,0,0.0,0.0,60,0.00,,,0.00,WUHU216HW,2013-01-31 22:41:00,
2013-01-31 17:46:00,34.0,22.0,29.54,North,0,0.0,0.0,61,0.00,,,0.00,WUHU216HW,2013-01-31 22:46:00,
2013-01-31 17:51:00,34.0,19.9,29.54,North,0,0.0,0.0,56,0.00,,,0.00,WUHU216HW,2013-01-31 22:51:00,
2013-01-31 17:56:00,34.2,20.5,29.54,North,0,0.0,0.0,57,0.00,,,0.00,WUHU216HW,2013-01-31 22:56:00,
2013-01-31 18:01:00,34.0,19.9,29.55,North,0,0.0,0.0,56,0.00,,,0.00,WUHU216HW,2013-01-31 23:01:00,
2013-01-31 18:06:00,33.8,19.7,29.55,North,0,0.0,0.0,56,0.00,,,0.00,WUHU216HW,2013-01-31 23:06:00,
2013-01-31 18:12:00,33.8,20.5,29.55,North,0,0.0,0.0,58,0.00,,,0.00,WUHU216HW,2013-01-31 23:12:00,
2013-01-31 18:17:00,33.5,20.7,29.56,North,0,0.0,0.0,59,0.00,,,0.00,WUHU216HW,2013-01-31 23:17:00,
2013-01-31 18:22:00,33.5,20.7,29.56,North,0,0.0,0.0,59,0.00,,,0.00,WUHU216HW,2013-01-31 23:22:00,
2013-01-31 18:27:00,33.1,20.8,29.56,North,0,0.0,0.0,60,0.00,,,0.00,WUHU216HW,2013-01-31 23:27:00,
2013-01-31 18:32:00,32.9,20.2,29.57,North,0,0.0,0.0,59,0.00,,,0.00,WUHU216HW,2013-01-31 23:32:00,
2013-01-31 18:37:00,32.9,20.2,29.58,North,0,0.0,0.0,59,0.00,,,0.00,WUHU216HW,2013-01-31 23:37:00,
2013-01-31 18:42:00,32.9,20.6,29.57,North,0,0.0,0.0,60,0.00,,,0.00,WUHU216HW,2013-01-31 23:42:00,
2013-01-31 18:47:00,32.9,20.6,29.57,North,0,0.0,0.0,60,0.00,,,0.00,WUHU216HW,2013-01-31 23:47:00,
2013-01-31 18:52:00,32.9,20.6,29.58,North,0,0.0,0.0,60,0.00,,,0.00,WUHU216HW,2013-01-31 23:52:00,
2013-01-31 18:57:00,32.9,21.0,29.58,North,0,0.0,0.0,61,0.00,,,0.00,WUHU216HW,2013-01-31 23:57:00,
2013-01-31 19:02:00,32.9,20.6,29.58,North,0,0.0,0.0,60,0.00,,,0.00,WUHU216HW,2013-02-01 00:02:00,
2013-01-31 19:08:00,32.8,20.8,29.59,North,0,0.0,0.0,61,0.00,,,0.00,WUHU216HW,2013-02-01 00:08:00,
2013-01-31 19:13:00,32.8,21.2,29.59,North,0,0.0,0.0,62,0.00,,,0.00,WUHU216HW,2013-02-01 00:13:00,
2013-01-31 19:18:00,32.8,21.2,29.59,North,0,0.0,0.0,62,0.00,,,0.00,WUHU216HW,2013-02-01 00:18:00,
2013-01-31 19:23:00,32.8,21.2,29.59,North,0,0.0,0.0,62,0.00,,,0.00,WUHU216HW,2013-02-01 00:23:00,
2013-01-31 19:28:00,32.8,21.5,29.59,North,0,0.0,0.0,63,0.00,,,0.00,WUHU216HW,2013-02-01 00:28:00,
2013-01-31 19:33:00,32.9,21.3,29.59,North,0,0.0,0.0,62,0.00,,,0.00,WUHU216HW,2013-02-01 00:33:00,
2013-01-31 19:38:00,32.6,23.9,29.61,North,0,0.0,0.0,70,0.00,,,0.00,WUHU216HW,2013-02-01 00:38:00,
2013-01-31 19:44:00,31.0,23.6,29.61,North,0,0.0,0.0,74,0.00,,,0.00,WUHU216HW,2013-02-01 00:44:00,
2013-01-31 19:49:00,30.2,23.2,29.61,North,0,0.0,0.0,75,0.00,,,0.00,WUHU216HW,2013-02-01 00:49:00,
2013-01-31 19:54:00,30.2,22.9,29.61,North,0,0.0,0.0,74,0.00,,,0.00,WUHU216HW,2013-02-01 00:54:00,
2013-01-31 19:59:00,30.2,22.2,29.61,North,0,0.0,0.0,72,0.00,,,0.00,WUHU216HW,2013-02-01 00:59:00,
2013-01-31 20:04:00,30.4,22.2,29.61,North,0,0.0,0.0,71,0.00,,,0.00,WUHU216HW,2013-02-01 01:04:00,
2013-01-31 20:09:00,30.6,21.6,29.61,North,0,0.0,0.0,69,0.00,,,0.00,WUHU216HW,2013-02-01 01:09:00,
2013-01-31 20:14:00,30.6,21.2,29.61,North,0,0.0,0.0,68,0.00,,,0.00,WUHU216HW,2013-02-01 01:14:00,
2013-01-31 20:19:00,30.6,20.9,29.62,North,0,0.0,0.0,67,0.00,,,0.00,WUHU216HW,2013-02-01 01:19:00,
2013-01-31 20:24:00,30.6,21.2,29.61,North,0,0.0,0.0,68,0.00,,,0.00,WUHU216HW,2013-02-01 01:24:00,
2013-01-31 20:29:00,30.6,21.2,29.62,North,0,0.0,0.0,68,0.00,,,0.00,WUHU216HW,2013-02-01 01:29:00,
2013-01-31 20:35:00,30.4,21.1,29.62,North,0,0.0,0.0,68,0.00,,,0.00,WUHU216HW,2013-02-01 01:35:00,
2013-01-31 20:40:00,30.4,20.3,29.63,North,0,0.0,0.0,66,0.00,,,0.00,WUHU216HW,2013-02-01 01:40:00,
2013-01-31 20:45:00,30.2,20.2,29.62,North,0,0.0,0.0,66,0.00,,,0.00,WUHU216HW,2013-02-01 01:45:00,
2013-01-31 20:50:00,30.2,20.5,29.63,North,0,0.0,0.0,67,0.00,,,0.00,WUHU216HW,2013-02-01 01:50:00,
2013-01-31 20:55:00,30.2,20.2,29.63,North,0,0.0,0.0,66,0.00,,,0.00,WUHU216HW,2013-02-01 01:55:00,
2013-01-31 21:00:00,30.1,19.6,29.64,North,0,0.0,0.0,65,0.00,,,0.00,WUHU216HW,2013-02-01 02:00:00,
2013-01-31 21:05:00,29.9,19.8,29.63,North,0,0.0,0.0,66,0.00,,,0.00,WUHU216HW,2013-02-01 02:05:00,
2013-01-31 21:10:00,29.9,19.4,29.64,North,0,0.0,0.0,65,0.00,,,0.00,WUHU216HW,2013-02-01 02:10:00,
2013-01-31 21:15:00,29.7,19.4,29.64,North,0,0.0,0.0,65,0.00,,,0.00,WUHU216HW,2013-02-01 02:15:00,
2013-01-31 21:20:00,29.9,19.1,29.64,North,0,0.0,0.0,64,0.00,,,0.00,WUHU216HW,2013-02-01 02:20:00,
2013-01-31 21:25:00,29.7,18.6,29.64,North,0,0.0,0.0,63,0.00,,,0.00,WUHU216HW,2013-02-01 02:25:00,
2013-01-31 21:30:00,29.5,18.5,29.64,North,0,0.0,0.0,63,0.00,,,0.00,WUHU216HW,2013-02-01 02:30:00,
2013-01-31 21:36:00,29.5,18.5,29.64,North,0,0.0,0.0,63,0.00,,,0.00,WUHU216HW,2013-02-01 02:36:00,
2013-01-31 21:41:00,29.5,18.1,29.64,North,0,0.0,0.0,62,0.00,,,0.00,WUHU216HW,2013-02-01 02:41:00,
2013-01-31 21:46:00,29.3,17.9,29.64,North,0,0.0,0.0,62,0.00,,,0.00,WUHU216HW,2013-02-01 02:46:00,
2013-01-31 21:51:00,29.3,17.9,29.64,North,0,0.0,0.0,62,0.00,,,0.00,WUHU216HW,2013-02-01 02:51:00,
2013-01-31 21:56:00,29.2,17.7,29.65,North,0,0.0,0.0,62,0.00,,,0.00,WUHU216HW,2013-02-01 02:56:00,
2013-01-31 22:01:00,29.2,17.7,29.64,North,0,0.0,0.0,62,0.00,,,0.00,WUHU216HW,2013-02-01 03:01:00,
2013-01-31 22:06:00,29.0,17.6,29.65,North,0,0.0,0.0,62,0.00,,,0.00,WUHU216HW,2013-02-01 03:06:00,
2013-01-31 22:11:00,28.8,17.5,29.65,North,0,0.0,0.0,62,0.00,,,0.00,WUHU216HW,2013-02-01 03:11:00,
2013-01-31 22:16:00,28.8,17.8,29.65,North,0,0.0,0.0,63,0.00,,,0.00,WUHU216HW,2013-02-01 03:16:00,
2013-01-31 22:22:00,28.6,17.3,29.66,North,0,0.0,0.0,62,0.00,,,0.00,WUHU216HW,2013-02-01 03:22:00,
2013-01-31 22:27:00,28.6,17.3,29.66,North,0,0.0,0.0,62,0.00,,,0.00,WUHU216HW,2013-02-01 03:27:00,
2013-01-31 22:32:00,28.6,17.3,29.66,North,0,0.0,0.0,62,0.00,,,0.00,WUHU216HW,2013-02-01 03:32:00,
2013-01-31 22:37:00,28.6,17.7,29.66,North,0,0.0,0.0,63,0.00,,,0.00,WUHU216HW,2013-02-01 03:37:00,
2013-01-31 22:42:00,28.4,17.1,29.66,North,0,0.0,0.0,62,0.00,,,0.00,WUHU216HW,2013-02-01 03:42:00,
2013-01-31 22:47:00,28.4,17.5,29.67,North,0,0.0,0.0,63,0.00,,,0.00,WUHU216HW,2013-02-01 03:47:00,
2013-01-31 22:52:00,28.4,17.5,29.66,North,0,0.0,0.0,63,0.00,,,0.00,WUHU216HW,2013-02-01 03:52:00,
2013-01-31 22:57:00,28.3,17.3,29.66,North,0,0.0,0.0,63,0.00,,,0.00,WUHU216HW,2013-02-01 03:57:00,
2013-01-31 23:02:00,28.3,17.3,29.66,North,0,0.0,0.0,63,0.00,,,0.00,WUHU216HW,2013-02-01 04:02:00,
2013-01-31 23:11:00,28.1,17.5,29.66,North,0,0.0,0.0,64,0.00,,,0.00,WUHU216HW,2013-02-01 04:11:00,
2013-01-31 23:16:00,28.1,16.7,29.66,North,0,0.0,0.0,62,0.00,,,0.00,WUHU216HW,2013-02-01 04:16:00,
2013-01-31 23:21:00,28.1,17.1,29.66,North,0,0.0,0.0,63,0.00,,,0.00,WUHU216HW,2013-02-01 04:21:00,
2013-01-31 23:26:00,27.9,16.6,29.67,North,0,0.0,0.0,62,0.00,,,0.00,WUHU216HW,2013-02-01 04:26:00,
2013-01-31 23:31:00,27.7,17.1,29.67,North,0,0.0,0.0,64,0.00,,,0.00,WUHU216HW,2013-02-01 04:31:00,
2013-01-31 23:37:00,27.7,16.7,29.66,North,0,0.0,0.0,63,0.00,,,0.00,WUHU216HW,2013-02-01 04:37:00,
2013-01-31 23:42:00,27.7,16.7,29.67,North,0,0.0,0.0,63,0.00,,,0.00,WUHU216HW,2013-02-01 04:42:00,
2013-01-31 23:47:00,27.7,16.7,29.67,North,0,0.0,0.0,63,0.00,,,0.00,WUHU216HW,2013-02-01 04:47:00,
2013-01-31 23:52:00,27.7,16.7,29.67,North,0,0.0,0.0,63,0.00,,,0.00,WUHU216HW,2013-02-01 04:52:00,
2013-01-31 23:57:00,27.7,17.1,29.67,North,0,0.0,0.0,64,0.00,,,0.00,WUHU216HW,2013-02-01 04:57:00,